createdAt,value
2023-01-25T00:02:17.071Z,9.20
2023-01-25T00:04:43.925Z,8.93
2023-01-25T00:07:10.644Z,8.13
2023-01-25T00:09:37.321Z,7.40
2023-01-25T00:12:04.219Z,7.13
2023-01-25T00:14:30.918Z,7.57
2023-01-25T00:16:57.595Z,6.45
2023-01-25T00:19:24.322Z,7.47
2023-01-25T00:21:51.045Z,6.90
2023-01-25T00:24:18.059Z,7.82
2023-01-25T00:26:44.857Z,8.02
2023-01-25T00:29:13.861Z,8.32
2023-01-25T00:32:06.919Z,8.75
2023-01-25T00:34:50.418Z,7.20
2023-01-25T00:37:36.647Z,7.57
2023-01-25T00:40:04.936Z,7.43
2023-01-25T00:42:31.850Z,8.13
2023-01-25T00:44:58.565Z,9.15
2023-01-25T00:47:25.242Z,7.70
2023-01-25T00:49:51.960Z,8.13
2023-01-25T00:52:18.692Z,8.85
2023-01-25T00:54:45.481Z,7.70
2023-01-25T00:57:12.212Z,7.82
2023-01-25T00:59:38.950Z,7.75
2023-01-25T01:02:05.942Z,7.00
2023-01-25T01:04:32.803Z,9.05
2023-01-25T01:06:59.540Z,9.70
2023-01-25T01:09:26.636Z,8.13
2023-01-25T01:11:54.147Z,8.50
2023-01-25T01:14:22.337Z,9.38
2023-01-25T01:16:50.390Z,8.52
2023-01-25T01:19:18.553Z,8.68
2023-01-25T01:21:45.217Z,8.15
2023-01-25T01:24:11.984Z,8.85
2023-01-25T01:26:38.764Z,9.13
2023-01-25T01:29:06.045Z,8.32
2023-01-25T01:31:33.778Z,7.72
2023-01-25T01:34:12.011Z,8.07
2023-01-25T01:36:38.671Z,7.45
2023-01-25T01:39:05.496Z,7.68
2023-01-25T01:41:32.313Z,7.90
2023-01-25T01:43:59.424Z,8.75
2023-01-25T01:46:37.464Z,9.15
2023-01-25T01:49:16.747Z,9.75
2023-01-25T01:51:50.789Z,9.45
2023-01-25T01:54:29.293Z,10.27
2023-01-25T01:57:02.634Z,10.35
2023-01-25T01:59:39.986Z,10.25
2023-01-25T02:02:07.297Z,10.07
2023-01-25T02:04:34.335Z,8.73
2023-01-25T02:07:11.593Z,7.07
2023-01-25T02:09:39.208Z,6.88
2023-01-25T02:12:07.640Z,6.97
2023-01-25T02:14:37.293Z,8.90
2023-01-25T02:17:04.440Z,9.90
2023-01-25T02:19:47.766Z,9.13
2023-01-25T02:22:20.293Z,8.38
2023-01-25T02:24:58.103Z,8.77
2023-01-25T02:27:24.989Z,8.23
2023-01-25T02:29:52.067Z,8.38
2023-01-25T02:32:18.752Z,8.90
2023-01-25T02:34:45.996Z,8.23
2023-01-25T02:37:14.913Z,7.93
2023-01-25T02:39:42.511Z,7.38
2023-01-25T02:42:09.788Z,9.43
2023-01-25T02:44:38.731Z,7.90
2023-01-25T02:47:05.450Z,8.60
2023-01-25T02:49:37.606Z,10.13
2023-01-25T02:52:05.267Z,8.57
2023-01-25T02:54:32.406Z,9.88
2023-01-25T02:56:59.425Z,9.20
2023-01-25T02:59:30.488Z,9.00
2023-01-25T03:01:59.528Z,8.82
2023-01-25T03:04:27.803Z,7.70
2023-01-25T03:06:54.757Z,8.68
2023-01-25T03:09:28.003Z,7.88
2023-01-25T03:11:54.656Z,7.72
2023-01-25T03:14:23.045Z,9.05
2023-01-25T03:16:50.043Z,7.05
2023-01-25T03:19:19.984Z,7.45
2023-01-25T03:21:46.862Z,9.38
2023-01-25T03:24:14.281Z,7.18
2023-01-25T03:27:04.089Z,9.95
2023-01-25T03:29:36.335Z,8.13
2023-01-25T03:32:08.573Z,7.60
2023-01-25T03:34:36.166Z,8.23
2023-01-25T03:37:03.769Z,7.63
2023-01-25T03:39:32.760Z,8.73
2023-01-25T03:41:59.474Z,8.07
2023-01-25T03:44:26.260Z,8.25
2023-01-25T03:46:53.028Z,8.52
2023-01-25T03:49:19.881Z,8.63
2023-01-25T03:51:46.753Z,8.95
2023-01-25T03:54:13.888Z,7.72
2023-01-25T03:56:40.608Z,8.70
2023-01-25T03:59:12.568Z,10.25
2023-01-25T04:01:39.829Z,8.30
2023-01-25T04:04:06.524Z,9.23
2023-01-25T04:06:33.977Z,9.40
2023-01-25T04:09:01.666Z,10.20
2023-01-25T04:11:34.917Z,9.75
2023-01-25T04:14:01.993Z,8.85
2023-01-25T04:16:36.157Z,9.75
2023-01-25T04:19:31.927Z,10.55
2023-01-25T04:22:00.630Z,8.63
2023-01-25T04:24:32.847Z,10.48
2023-01-25T04:26:59.619Z,9.30
2023-01-25T04:29:40.077Z,9.52
2023-01-25T04:32:09.095Z,9.68
2023-01-25T04:34:36.108Z,10.10
2023-01-25T04:37:02.883Z,9.80
2023-01-25T04:39:33.888Z,10.15
2023-01-25T04:42:00.608Z,10.18
2023-01-25T04:44:27.305Z,10.30
2023-01-25T04:46:55.028Z,10.50
2023-01-25T04:49:22.112Z,10.77
2023-01-25T04:51:48.833Z,12.70
2023-01-25T04:54:15.598Z,10.40
2023-01-25T04:56:42.961Z,11.13
2023-01-25T04:59:10.826Z,10.95
2023-01-25T05:01:37.588Z,11.40
2023-01-25T05:04:06.708Z,12.02
2023-01-25T05:06:40.263Z,11.88
2023-01-25T05:09:07.033Z,11.27
2023-01-25T05:11:35.127Z,11.30
2023-01-25T05:14:06.413Z,10.48
2023-01-25T05:16:34.371Z,11.27
2023-01-25T05:19:02.829Z,10.98
2023-01-25T05:21:55.705Z,10.10
2023-01-25T05:24:22.813Z,10.80
2023-01-25T05:27:03.529Z,11.38
2023-01-25T05:29:53.426Z,11.90
2023-01-25T05:32:24.313Z,11.50
2023-01-25T05:34:51.836Z,12.65
2023-01-25T05:37:21.278Z,11.32
2023-01-25T05:39:54.709Z,12.75
2023-01-25T05:42:21.411Z,14.07
2023-01-25T05:44:48.267Z,11.82
2023-01-25T05:47:17.561Z,12.85
2023-01-25T05:49:44.464Z,13.48
2023-01-25T05:52:19.101Z,11.60
2023-01-25T05:54:45.846Z,11.60
2023-01-25T05:57:15.885Z,12.63
2023-01-25T05:59:42.970Z,13.48
2023-01-25T06:02:14.022Z,14.23
2023-01-25T06:04:42.554Z,12.10
2023-01-25T06:07:10.207Z,13.88
2023-01-25T06:09:37.499Z,16.98
2023-01-25T06:12:06.069Z,12.45
2023-01-25T06:14:33.048Z,12.38
2023-01-25T06:17:01.606Z,11.98
2023-01-25T06:19:47.236Z,13.55
2023-01-25T06:22:51.048Z,11.80
2023-01-25T06:25:18.230Z,12.05
2023-01-25T06:27:44.997Z,12.48
2023-01-25T06:30:12.146Z,10.90
2023-01-25T06:32:38.969Z,10.73
2023-01-25T06:35:06.080Z,11.88
2023-01-25T06:37:33.388Z,11.70
2023-01-25T06:40:00.047Z,12.05
2023-01-25T06:42:26.787Z,13.10
2023-01-25T06:44:53.648Z,12.80
2023-01-25T06:47:20.273Z,12.40
2023-01-25T06:49:46.924Z,11.85
2023-01-25T06:52:13.566Z,11.32
2023-01-25T06:54:41.124Z,12.88
2023-01-25T06:57:10.270Z,11.38
2023-01-25T06:59:36.936Z,10.65
2023-01-25T07:02:04.019Z,11.73
2023-01-25T07:04:30.961Z,10.80
2023-01-25T07:06:57.636Z,10.00
2023-01-25T07:09:24.549Z,10.38
2023-01-25T07:11:51.691Z,11.02
2023-01-25T07:14:18.785Z,10.40
2023-01-25T07:16:45.403Z,10.88
2023-01-25T07:19:15.645Z,10.65
2023-01-25T07:21:42.595Z,11.93
2023-01-25T07:24:14.708Z,9.32
2023-01-25T07:29:12.580Z,9.55
2023-01-25T07:31:39.305Z,11.60
2023-01-25T07:34:07.103Z,9.52
2023-01-25T07:36:33.954Z,9.63
2023-01-25T07:39:00.616Z,9.00
2023-01-25T07:41:27.950Z,7.72
2023-01-25T07:43:54.940Z,7.70
2023-01-25T07:46:33.497Z,8.30
2023-01-25T07:49:00.213Z,7.65
2023-01-25T07:51:27.922Z,6.75
2023-01-25T07:53:56.845Z,7.68
2023-01-25T07:56:31.683Z,8.05
2023-01-25T07:58:59.461Z,8.45
2023-01-25T08:01:28.101Z,7.80
2023-01-25T08:03:58.648Z,9.13
2023-01-25T08:06:39.145Z,8.55
2023-01-25T08:09:13.587Z,9.35
2023-01-25T08:11:41.982Z,9.50
2023-01-25T08:14:09.076Z,9.23
2023-01-25T08:16:35.746Z,10.20
2023-01-25T08:19:03.408Z,8.25
2023-01-25T08:21:33.514Z,8.50
2023-01-25T08:24:02.284Z,8.73
2023-01-25T08:26:29.265Z,8.00
2023-01-25T08:28:56.470Z,9.68
2023-01-25T08:31:29.438Z,9.63
2023-01-25T08:33:57.304Z,8.95
2023-01-25T08:36:24.419Z,9.77
2023-01-25T08:38:58.697Z,10.25
2023-01-25T08:41:26.750Z,9.55
2023-01-25T08:43:55.034Z,9.10
2023-01-25T08:46:23.110Z,10.10
2023-01-25T08:48:55.037Z,10.77
2023-01-25T08:51:21.943Z,10.35
2023-01-25T08:53:48.775Z,11.80
2023-01-25T08:56:16.498Z,10.35
2023-01-25T08:58:45.653Z,9.88
2023-01-25T09:01:14.680Z,11.35
2023-01-25T09:03:44.813Z,10.77
2023-01-25T09:06:12.648Z,10.50
2023-01-25T09:08:39.956Z,10.70
2023-01-25T09:11:09.287Z,10.52
2023-01-25T09:13:36.327Z,8.98
2023-01-25T09:16:09.919Z,9.70
2023-01-25T09:18:37.893Z,10.15
2023-01-25T09:21:09.672Z,10.30
2023-01-25T09:23:50.300Z,11.10
2023-01-25T09:26:19.064Z,10.70
2023-01-25T09:28:50.780Z,10.52
2023-01-25T09:31:21.990Z,10.48
2023-01-25T09:34:08.937Z,9.15
2023-01-25T09:36:36.562Z,9.40
2023-01-25T09:39:03.420Z,11.20
2023-01-25T09:41:58.183Z,9.75
2023-01-25T09:44:53.027Z,9.68
2023-01-25T09:47:24.753Z,11.23
2023-01-25T09:50:11.852Z,10.23
2023-01-25T09:53:13.396Z,11.20
2023-01-25T09:55:41.447Z,10.13
2023-01-25T09:58:18.184Z,10.60
2023-01-25T10:00:47.980Z,10.55
2023-01-25T10:03:32.402Z,10.10
2023-01-25T10:06:02.131Z,11.13
2023-01-25T10:08:40.297Z,9.88
2023-01-25T10:11:21.033Z,10.15
2023-01-25T10:13:48.549Z,9.85
2023-01-25T10:16:35.452Z,8.73
2023-01-25T10:19:34.344Z,9.45
2023-01-25T10:22:23.504Z,10.13
2023-01-25T10:25:12.106Z,11.60
2023-01-25T10:28:03.746Z,12.80
2023-01-25T10:30:35.735Z,11.27
2023-01-25T10:33:11.883Z,10.85
2023-01-25T10:35:45.876Z,11.02
2023-01-25T10:38:35.285Z,11.52
2023-01-25T10:41:20.174Z,10.80
2023-01-25T10:43:47.219Z,9.55
2023-01-25T10:46:21.661Z,10.23
2023-01-25T10:48:48.386Z,9.93
2023-01-25T10:51:35.499Z,11.43
2023-01-25T10:54:06.431Z,12.18
2023-01-25T10:56:35.436Z,10.68
2023-01-25T10:59:17.025Z,10.68
2023-01-25T11:01:44.123Z,10.80
2023-01-25T11:04:29.814Z,9.43
2023-01-25T11:06:56.904Z,11.00
2023-01-25T11:09:35.745Z,9.90
2023-01-25T11:12:11.669Z,10.93
2023-01-25T11:14:38.350Z,9.73
2023-01-25T11:17:18.961Z,10.77
2023-01-25T11:19:45.588Z,11.27
2023-01-25T11:22:18.573Z,11.20
2023-01-25T11:24:45.903Z,10.48
2023-01-25T11:27:25.884Z,12.25
2023-01-25T11:30:18.881Z,12.93
2023-01-25T11:32:45.741Z,11.93
2023-01-25T11:35:14.748Z,12.32
2023-01-25T11:37:46.479Z,10.02
2023-01-25T11:40:47.180Z,10.82
2023-01-25T11:43:34.662Z,9.77
2023-01-25T11:46:21.438Z,11.32
2023-01-25T11:49:14.913Z,10.82
2023-01-25T11:51:51.505Z,12.15
2023-01-25T11:54:29.852Z,10.45
2023-01-25T11:56:56.459Z,12.68
2023-01-25T12:00:00.987Z,10.68
2023-01-25T12:02:42.110Z,11.13
2023-01-25T12:05:28.601Z,12.27
2023-01-25T12:08:19.900Z,10.27
2023-01-25T12:10:49.492Z,10.93
2023-01-25T12:13:39.339Z,11.05
2023-01-25T12:16:26.944Z,13.48
2023-01-25T12:19:24.628Z,10.82
2023-01-25T12:22:12.583Z,11.27
2023-01-25T12:25:00.154Z,12.77
2023-01-25T12:28:00.300Z,12.02
2023-01-25T12:30:56.101Z,12.13
2023-01-25T12:33:36.412Z,11.10
2023-01-25T12:36:24.929Z,10.82
2023-01-25T12:39:06.369Z,12.60
2023-01-25T12:41:43.624Z,11.38
2023-01-25T12:44:31.542Z,11.80
2023-01-25T12:47:23.520Z,11.73
2023-01-25T12:50:04.550Z,12.10
2023-01-25T12:52:37.393Z,11.93
2023-01-25T12:55:07.684Z,13.73
2023-01-25T12:57:49.358Z,11.88
2023-01-25T13:00:20.678Z,12.10
2023-01-25T13:03:06.697Z,13.70
2023-01-25T13:05:40.035Z,13.75
2023-01-25T13:08:49.118Z,12.32
2023-01-25T13:11:21.284Z,13.00
2023-01-25T13:13:48.099Z,12.75
2023-01-25T13:16:29.814Z,13.23
2023-01-25T13:18:59.862Z,9.32
2023-01-25T13:21:45.041Z,14.07
2023-01-25T13:24:15.246Z,13.07
2023-01-25T13:26:50.573Z,12.90
2023-01-25T13:29:39.649Z,14.45
2023-01-25T13:32:13.132Z,15.25
2023-01-25T13:34:42.873Z,11.23
2023-01-25T13:37:24.616Z,12.52
2023-01-25T13:39:58.248Z,12.23
2023-01-25T13:42:31.054Z,12.57
2023-01-25T13:45:02.670Z,12.13
2023-01-25T13:47:35.912Z,12.48
2023-01-25T13:50:22.961Z,11.55
2023-01-25T13:53:15.355Z,12.20
2023-01-25T13:58:22.136Z,12.88
2023-01-25T14:00:57.471Z,11.50
2023-01-25T14:03:31.413Z,10.45
2023-01-25T14:06:02.364Z,12.35
2023-01-25T14:08:30.069Z,11.00
2023-01-25T14:10:57.373Z,11.38
2023-01-25T14:13:24.370Z,11.20
2023-01-25T14:16:00.223Z,10.38
2023-01-25T14:18:38.685Z,9.88
2023-01-25T14:21:20.364Z,11.80
2023-01-25T14:23:48.619Z,11.77
2023-01-25T14:26:24.601Z,11.00
2023-01-25T14:29:01.039Z,10.55
2023-01-25T14:31:33.515Z,10.15
2023-01-25T14:34:02.568Z,9.18
2023-01-25T14:36:34.104Z,11.18
2023-01-25T14:39:02.073Z,11.25
2023-01-25T14:41:34.423Z,11.23
2023-01-25T14:44:10.534Z,10.67
2023-01-25T14:46:38.970Z,9.15
2023-01-25T14:49:11.409Z,10.52
2023-01-25T14:51:50.459Z,12.18
2023-01-25T14:54:20.480Z,10.88
2023-01-25T14:56:49.463Z,10.65
2023-01-25T14:59:27.962Z,9.75
2023-01-25T15:01:58.887Z,9.90
2023-01-25T15:04:25.845Z,9.85
2023-01-25T15:06:56.108Z,10.50
2023-01-25T15:09:34.982Z,11.02
2023-01-25T15:12:22.891Z,9.80
2023-01-25T15:14:55.253Z,9.75
2023-01-25T15:17:43.351Z,10.57
2023-01-25T15:20:43.581Z,10.70
2023-01-25T15:23:36.648Z,9.85
2023-01-25T15:26:30.800Z,10.18
2023-01-25T15:29:00.026Z,10.77
2023-01-25T15:31:28.132Z,10.45
2023-01-25T15:33:59.084Z,10.48
2023-01-25T15:36:27.336Z,9.95
2023-01-25T15:38:54.382Z,10.13
2023-01-25T15:41:21.280Z,10.15
2023-01-25T15:43:49.025Z,10.32
2023-01-25T15:46:19.787Z,11.93
2023-01-25T15:48:48.183Z,12.73
2023-01-25T15:51:14.931Z,12.88
2023-01-25T15:53:41.696Z,11.82
2023-01-25T15:56:15.227Z,13.07
2023-01-25T15:58:51.975Z,10.80
2023-01-25T16:01:19.183Z,10.77
2023-01-25T16:03:46.121Z,10.35
2023-01-25T16:06:32.725Z,10.93
2023-01-25T16:09:00.203Z,12.00
2023-01-25T16:11:27.296Z,11.13
2023-01-25T16:13:54.202Z,12.95
2023-01-25T16:16:25.559Z,11.27
2023-01-25T16:18:52.332Z,10.65
2023-01-25T16:21:19.087Z,10.52
2023-01-25T16:23:45.824Z,11.98
2023-01-25T16:26:20.161Z,10.45
2023-01-25T16:28:46.906Z,11.75
2023-01-25T16:31:26.222Z,13.68
2023-01-25T16:33:57.792Z,11.32
2023-01-25T16:36:25.000Z,12.90
2023-01-25T16:38:51.737Z,13.20
2023-01-25T16:41:18.767Z,12.00
2023-01-25T16:43:47.765Z,13.70
2023-01-25T16:46:17.768Z,13.95
2023-01-25T16:48:45.802Z,13.35
2023-01-25T16:51:24.467Z,16.77
2023-01-25T16:53:53.526Z,15.57
2023-01-25T16:56:22.149Z,15.48
2023-01-25T16:58:51.142Z,14.10
2023-01-25T17:01:19.909Z,17.15
2023-01-25T17:03:47.028Z,18.15
2023-01-25T17:06:32.089Z,16.52
2023-01-25T17:09:09.320Z,15.20
2023-01-25T17:11:39.926Z,16.80
2023-01-25T17:14:07.535Z,16.63
2023-01-25T17:16:34.823Z,16.42
2023-01-25T17:19:04.509Z,15.38
2023-01-25T17:21:34.335Z,15.43
2023-01-25T17:24:02.192Z,15.75
2023-01-25T17:26:31.240Z,18.02
2023-01-25T17:29:02.161Z,17.05
2023-01-25T17:31:35.502Z,21.60
2023-01-25T17:34:04.810Z,18.75
2023-01-25T17:36:31.968Z,21.30
2023-01-25T17:39:06.262Z,18.08
2023-01-25T17:41:33.259Z,20.05
2023-01-25T17:44:00.082Z,20.27
2023-01-25T17:46:33.354Z,20.52
2023-01-25T17:49:02.080Z,20.38
2023-01-25T17:51:30.207Z,20.60
2023-01-25T17:53:57.648Z,21.98
2023-01-25T17:56:24.395Z,25.95
2023-01-25T17:58:51.154Z,23.95
2023-01-25T18:01:23.453Z,27.55
2023-01-25T18:03:51.898Z,26.63
2023-01-25T18:06:21.077Z,28.13
2023-01-25T18:08:50.189Z,24.95
2023-01-25T18:11:20.414Z,26.42
2023-01-25T18:13:53.392Z,27.15
2023-01-25T18:16:23.820Z,25.98
2023-01-25T18:18:53.488Z,27.15
2023-01-25T18:21:25.597Z,26.38
2023-01-25T18:23:55.360Z,31.67
2023-01-25T18:26:31.825Z,30.33
2023-01-25T18:29:03.624Z,29.15
2023-01-25T18:31:30.463Z,29.33
2023-01-25T18:33:58.143Z,30.70
2023-01-25T18:36:25.264Z,32.40
2023-01-25T18:38:52.245Z,33.63
2023-01-25T18:41:18.931Z,31.88
2023-01-25T18:43:48.972Z,31.45
2023-01-25T18:46:15.916Z,31.23
2023-01-25T18:48:45.368Z,30.27
2023-01-25T18:51:15.310Z,42.33
2023-01-25T18:53:43.521Z,36.78
2023-01-25T18:56:16.106Z,32.97
2023-01-25T18:58:43.075Z,32.97
2023-01-25T19:01:18.139Z,34.33
2023-01-25T19:03:46.991Z,31.98
2023-01-25T19:06:15.046Z,31.58
2023-01-25T19:08:44.404Z,31.05
2023-01-25T19:11:16.715Z,33.30
2023-01-25T19:13:44.360Z,32.20
2023-01-25T19:16:20.405Z,33.28
2023-01-25T19:18:52.691Z,34.47
2023-01-25T19:21:25.568Z,34.67
2023-01-25T19:23:53.998Z,33.10
2023-01-25T19:26:23.873Z,32.72
2023-01-25T19:28:51.651Z,31.63
2023-01-25T19:31:23.951Z,32.70
2023-01-25T19:34:00.512Z,33.47
2023-01-25T19:36:32.757Z,31.50
2023-01-25T19:39:00.112Z,33.33
2023-01-25T19:41:29.598Z,29.88
2023-01-25T19:43:58.924Z,31.50
2023-01-25T19:46:30.215Z,31.80
2023-01-25T19:48:59.043Z,33.53
2023-01-25T19:51:30.002Z,33.95
2023-01-25T19:54:02.968Z,33.33
2023-01-25T19:56:35.885Z,30.52
2023-01-25T19:59:05.612Z,30.13
2023-01-25T20:01:33.078Z,30.80
2023-01-25T20:04:01.024Z,32.97
2023-01-25T20:06:28.359Z,32.35
2023-01-25T20:08:55.700Z,33.65
2023-01-25T20:11:25.200Z,31.85
2023-01-25T20:13:55.423Z,31.50
2023-01-25T20:16:25.103Z,30.90
2023-01-25T20:18:52.294Z,31.40
2023-01-25T20:21:21.885Z,31.63
2023-01-25T20:23:53.104Z,32.63
2023-01-25T20:26:34.728Z,34.35
2023-01-25T20:29:01.684Z,31.60
2023-01-25T20:31:34.059Z,30.17
2023-01-25T20:34:04.065Z,29.02
2023-01-25T20:36:33.053Z,30.80
2023-01-25T20:39:00.219Z,33.22
2023-01-25T20:41:27.346Z,30.80
2023-01-25T20:43:57.149Z,29.45
2023-01-25T20:46:25.314Z,30.10
2023-01-25T20:48:54.024Z,30.38
2023-01-25T20:51:22.086Z,29.63
2023-01-25T20:53:50.466Z,30.63
2023-01-25T20:56:18.759Z,30.85
2023-01-25T20:58:50.601Z,31.25
2023-01-25T21:01:20.844Z,28.05
2023-01-25T21:03:49.304Z,29.35
2023-01-25T21:06:17.488Z,31.65
2023-01-25T21:08:44.630Z,32.58
2023-01-25T21:11:13.487Z,31.50
2023-01-25T21:13:41.087Z,28.70
2023-01-25T21:16:12.190Z,26.75
2023-01-25T21:18:44.805Z,29.93
2023-01-25T21:21:13.995Z,30.80
2023-01-25T21:23:42.998Z,28.35
2023-01-25T21:26:15.056Z,31.55
2023-01-25T21:31:11.523Z,29.40
2023-01-25T21:33:38.859Z,28.25
2023-01-25T21:36:11.649Z,30.38
2023-01-25T21:38:40.057Z,34.28
2023-01-25T21:41:10.245Z,28.77
2023-01-25T21:43:56.036Z,31.27
2023-01-25T21:46:25.865Z,27.85
2023-01-25T21:49:12.246Z,28.38
2023-01-25T21:51:47.194Z,32.28
2023-01-25T21:54:15.902Z,32.35
2023-01-25T21:56:43.645Z,29.40
2023-01-25T21:59:10.512Z,31.50
2023-01-25T22:01:37.508Z,32.08
2023-01-25T22:04:04.266Z,31.63
2023-01-25T22:06:30.957Z,32.72
2023-01-25T22:08:57.653Z,30.77
2023-01-25T22:11:24.922Z,31.20
2023-01-25T22:13:51.700Z,31.63
2023-01-25T22:16:18.731Z,31.88
2023-01-25T22:18:45.533Z,32.55
2023-01-25T22:21:18.611Z,34.03
2023-01-25T22:23:45.697Z,34.13
2023-01-25T22:26:24.475Z,32.97
2023-01-25T22:28:53.406Z,33.08
2023-01-25T22:31:28.626Z,30.63
2023-01-25T22:33:56.128Z,33.42
2023-01-25T22:36:24.548Z,31.02
2023-01-25T22:38:51.872Z,30.33
2023-01-25T22:41:21.507Z,30.90
2023-01-25T22:43:48.841Z,28.33
2023-01-25T22:46:18.108Z,32.70
2023-01-25T22:48:46.015Z,33.92
2023-01-25T22:51:15.031Z,33.05
2023-01-25T22:53:42.159Z,30.80
2023-01-25T22:56:23.921Z,33.15
2023-01-25T22:58:51.587Z,31.15
2023-01-25T23:01:22.388Z,31.75
2023-01-25T23:03:50.098Z,31.48
2023-01-25T23:06:22.928Z,30.98
2023-01-25T23:08:50.437Z,33.42
2023-01-25T23:11:19.301Z,30.67
2023-01-25T23:14:06.801Z,31.05
2023-01-25T23:16:35.135Z,29.60
2023-01-25T23:19:04.088Z,31.63
2023-01-25T23:21:31.511Z,34.15
2023-01-25T23:24:02.092Z,32.25
2023-01-25T23:26:37.260Z,32.17
2023-01-25T23:29:09.031Z,32.28
2023-01-25T23:31:36.696Z,31.75
2023-01-25T23:34:06.051Z,33.25
2023-01-25T23:36:35.557Z,33.72
2023-01-25T23:39:02.971Z,34.55
2023-01-25T23:41:30.735Z,33.15
2023-01-25T23:43:57.964Z,30.83
2023-01-25T23:46:25.498Z,30.33
2023-01-25T23:48:52.469Z,32.25
2023-01-25T23:51:19.632Z,31.58
2023-01-25T23:53:46.780Z,31.90
2023-01-25T23:56:17.406Z,32.92
2023-01-25T23:58:45.022Z,31.30
